sensor_id;sensor_type;location;lat;lon;timestamp;P1;durP1;ratioP1;P2;durP2;ratioP2
9775;SDS011;4927;52.472;13.108;2022-11-24T00:02:16;60.15;;;27.02;;
9775;SDS011;4927;52.472;13.108;2022-11-24T00:07:22;42.58;;;26.80;;
9775;SDS011;4927;52.472;13.108;2022-11-24T00:12:29;39.88;;;26.00;;
9775;SDS011;4927;52.472;13.108;2022-11-24T00:17:35;39.97;;;25.95;;
9775;SDS011;4927;52.472;13.108;2022-11-24T00:22:41;40.25;;;26.37;;
9775;SDS011;4927;52.472;13.108;2022-11-24T00:27:47;37.47;;;24.75;;
9775;SDS011;4927;52.472;13.108;2022-11-24T00:32:54;44.75;;;26.62;;
9775;SDS011;4927;52.472;13.108;2022-11-24T00:39:13;50.10;;;25.67;;
9775;SDS011;4927;52.472;13.108;2022-11-24T00:44:19;44.08;;;27.58;;
9775;SDS011;4927;52.472;13.108;2022-11-24T00:49:25;40.12;;;26.50;;
9775;SDS011;4927;52.472;13.108;2022-11-24T00:54:31;48.33;;;27.50;;
9775;SDS011;4927;52.472;13.108;2022-11-24T00:59:37;49.30;;;27.92;;
9775;SDS011;4927;52.472;13.108;2022-11-24T01:04:44;67.07;;;30.45;;
9775;SDS011;4927;52.472;13.108;2022-11-24T01:09:51;45.65;;;27.40;;
9775;SDS011;4927;52.472;13.108;2022-11-24T01:14:57;87.30;;;29.58;;
9775;SDS011;4927;52.472;13.108;2022-11-24T01:20:03;108.82;;;31.25;;
9775;SDS011;4927;52.472;13.108;2022-11-24T01:25:12;49.78;;;30.30;;
9775;SDS011;4927;52.472;13.108;2022-11-24T01:30:18;46.47;;;29.02;;
9775;SDS011;4927;52.472;13.108;2022-11-24T01:35:26;38.25;;;26.48;;
9775;SDS011;4927;52.472;13.108;2022-11-24T01:40:32;47.35;;;29.02;;
9775;SDS011;4927;52.472;13.108;2022-11-24T01:45:39;49.28;;;29.85;;
9775;SDS011;4927;52.472;13.108;2022-11-24T01:50:46;42.42;;;27.25;;
9775;SDS011;4927;52.472;13.108;2022-11-24T01:55:52;45.67;;;26.20;;
9775;SDS011;4927;52.472;13.108;2022-11-24T02:00:58;75.85;;;27.25;;
9775;SDS011;4927;52.472;13.108;2022-11-24T02:06:07;43.00;;;25.20;;
9775;SDS011;4927;52.472;13.108;2022-11-24T02:11:15;57.15;;;27.67;;
9775;SDS011;4927;52.472;13.108;2022-11-24T02:16:21;45.67;;;26.70;;
9775;SDS011;4927;52.472;13.108;2022-11-24T02:21:27;60.58;;;27.25;;
9775;SDS011;4927;52.472;13.108;2022-11-24T02:26:37;40.50;;;26.80;;
9775;SDS011;4927;52.472;13.108;2022-11-24T02:31:48;59.57;;;27.27;;
9775;SDS011;4927;52.472;13.108;2022-11-24T02:36:53;74.43;;;27.33;;
9775;SDS011;4927;52.472;13.108;2022-11-24T02:42:00;40.17;;;25.33;;
9775;SDS011;4927;52.472;13.108;2022-11-24T02:47:07;66.28;;;28.87;;
9775;SDS011;4927;52.472;13.108;2022-11-24T02:52:09;43.97;;;27.00;;
9775;SDS011;4927;52.472;13.108;2022-11-24T02:57:14;43.13;;;26.48;;
9775;SDS011;4927;52.472;13.108;2022-11-24T03:02:21;38.33;;;26.83;;
9775;SDS011;4927;52.472;13.108;2022-11-24T03:07:27;34.95;;;24.08;;
9775;SDS011;4927;52.472;13.108;2022-11-24T03:12:33;41.08;;;25.77;;
9775;SDS011;4927;52.472;13.108;2022-11-24T03:17:39;40.00;;;24.90;;
9775;SDS011;4927;52.472;13.108;2022-11-24T03:22:46;35.70;;;23.62;;
9775;SDS011;4927;52.472;13.108;2022-11-24T03:27:52;38.47;;;26.90;;
9775;SDS011;4927;52.472;13.108;2022-11-24T03:32:58;36.13;;;25.58;;
9775;SDS011;4927;52.472;13.108;2022-11-24T03:38:04;40.90;;;26.48;;
9775;SDS011;4927;52.472;13.108;2022-11-24T03:43:11;43.25;;;24.83;;
9775;SDS011;4927;52.472;13.108;2022-11-24T03:48:15;35.85;;;23.80;;
9775;SDS011;4927;52.472;13.108;2022-11-24T03:53:21;29.83;;;22.83;;
9775;SDS011;4927;52.472;13.108;2022-11-24T03:58:25;35.85;;;24.60;;
9775;SDS011;4927;52.472;13.108;2022-11-24T04:03:29;33.40;;;24.42;;
9775;SDS011;4927;52.472;13.108;2022-11-24T04:08:34;34.05;;;23.17;;
9775;SDS011;4927;52.472;13.108;2022-11-24T04:13:38;86.40;;;28.38;;
9775;SDS011;4927;52.472;13.108;2022-11-24T04:18:45;66.97;;;26.90;;
9775;SDS011;4927;52.472;13.108;2022-11-24T04:23:49;44.13;;;25.65;;
9775;SDS011;4927;52.472;13.108;2022-11-24T04:28:54;42.85;;;27.95;;
9775;SDS011;4927;52.472;13.108;2022-11-24T04:34:00;33.88;;;23.73;;
9775;SDS011;4927;52.472;13.108;2022-11-24T04:39:04;34.80;;;23.42;;
9775;SDS011;4927;52.472;13.108;2022-11-24T04:44:09;40.00;;;26.58;;
9775;SDS011;4927;52.472;13.108;2022-11-24T04:49:15;34.45;;;23.42;;
9775;SDS011;4927;52.472;13.108;2022-11-24T04:54:19;37.92;;;25.55;;
9775;SDS011;4927;52.472;13.108;2022-11-24T04:59:25;36.03;;;24.52;;
9775;SDS011;4927;52.472;13.108;2022-11-24T05:04:32;75.18;;;26.45;;
9775;SDS011;4927;52.472;13.108;2022-11-24T05:09:37;34.15;;;23.87;;
9775;SDS011;4927;52.472;13.108;2022-11-24T05:14:43;37.45;;;24.10;;
9775;SDS011;4927;52.472;13.108;2022-11-24T05:19:47;37.17;;;25.00;;
9775;SDS011;4927;52.472;13.108;2022-11-24T05:24:52;37.40;;;24.60;;
9775;SDS011;4927;52.472;13.108;2022-11-24T05:29:58;30.48;;;23.02;;
9775;SDS011;4927;52.472;13.108;2022-11-24T05:35:02;39.42;;;24.60;;
9775;SDS011;4927;52.472;13.108;2022-11-24T05:40:10;33.75;;;24.40;;
9775;SDS011;4927;52.472;13.108;2022-11-24T05:49:48;44.83;;;23.30;;
9775;SDS011;4927;52.472;13.108;2022-11-24T05:57:11;39.20;;;20.73;;
9775;SDS011;4927;52.472;13.108;2022-11-24T06:02:17;33.80;;;23.25;;
9775;SDS011;4927;52.472;13.108;2022-11-24T06:07:23;35.92;;;24.30;;
9775;SDS011;4927;52.472;13.108;2022-11-24T06:22:59;30.03;;;21.20;;
9775;SDS011;4927;52.472;13.108;2022-11-24T06:28:05;38.70;;;25.05;;
9775;SDS011;4927;52.472;13.108;2022-11-24T06:33:11;35.40;;;24.45;;
9775;SDS011;4927;52.472;13.108;2022-11-24T06:38:40;37.90;;;22.80;;
9775;SDS011;4927;52.472;13.108;2022-11-24T06:43:44;38.50;;;25.58;;
9775;SDS011;4927;52.472;13.108;2022-11-24T06:48:51;42.58;;;25.45;;
9775;SDS011;4927;52.472;13.108;2022-11-24T06:53:56;30.77;;;23.08;;
9775;SDS011;4927;52.472;13.108;2022-11-24T06:59:03;35.95;;;23.98;;
9775;SDS011;4927;52.472;13.108;2022-11-24T07:04:07;34.78;;;23.60;;
9775;SDS011;4927;52.472;13.108;2022-11-24T07:09:13;35.90;;;23.87;;
9775;SDS011;4927;52.472;13.108;2022-11-24T07:14:20;36.55;;;24.40;;
9775;SDS011;4927;52.472;13.108;2022-11-24T07:19:26;34.30;;;24.23;;
9775;SDS011;4927;52.472;13.108;2022-11-24T07:24:33;34.30;;;23.95;;
9775;SDS011;4927;52.472;13.108;2022-11-24T07:29:39;35.97;;;24.27;;
9775;SDS011;4927;52.472;13.108;2022-11-24T07:34:46;34.28;;;22.65;;
9775;SDS011;4927;52.472;13.108;2022-11-24T07:39:52;30.98;;;22.37;;
9775;SDS011;4927;52.472;13.108;2022-11-24T07:44:58;35.95;;;25.00;;
9775;SDS011;4927;52.472;13.108;2022-11-24T07:50:06;30.95;;;22.50;;
9775;SDS011;4927;52.472;13.108;2022-11-24T07:55:11;32.10;;;23.25;;
9775;SDS011;4927;52.472;13.108;2022-11-24T08:00:18;32.00;;;22.37;;
9775;SDS011;4927;52.472;13.108;2022-11-24T08:05:25;33.53;;;23.50;;
9775;SDS011;4927;52.472;13.108;2022-11-24T08:10:31;34.00;;;22.40;;
9775;SDS011;4927;52.472;13.108;2022-11-24T08:15:37;29.55;;;22.13;;
9775;SDS011;4927;52.472;13.108;2022-11-24T08:20:43;31.02;;;22.50;;
9775;SDS011;4927;52.472;13.108;2022-11-24T08:25:50;32.42;;;23.12;;
9775;SDS011;4927;52.472;13.108;2022-11-24T08:31:02;34.33;;;24.08;;
9775;SDS011;4927;52.472;13.108;2022-11-24T08:36:08;32.92;;;23.38;;
9775;SDS011;4927;52.472;13.108;2022-11-24T08:41:15;36.20;;;24.60;;
9775;SDS011;4927;52.472;13.108;2022-11-24T08:46:21;31.85;;;22.08;;
9775;SDS011;4927;52.472;13.108;2022-11-24T08:51:28;31.23;;;23.12;;
9775;SDS011;4927;52.472;13.108;2022-11-24T08:56:34;28.52;;;21.70;;
9775;SDS011;4927;52.472;13.108;2022-11-24T09:01:40;29.07;;;21.40;;
9775;SDS011;4927;52.472;13.108;2022-11-24T09:06:46;29.07;;;21.50;;
9775;SDS011;4927;52.472;13.108;2022-11-24T09:11:53;32.22;;;23.10;;
9775;SDS011;4927;52.472;13.108;2022-11-24T09:17:00;30.50;;;22.40;;
9775;SDS011;4927;52.472;13.108;2022-11-24T09:22:06;35.30;;;22.30;;
9775;SDS011;4927;52.472;13.108;2022-11-24T09:27:13;31.10;;;22.10;;
9775;SDS011;4927;52.472;13.108;2022-11-24T09:32:20;29.90;;;22.73;;
9775;SDS011;4927;52.472;13.108;2022-11-24T09:37:26;28.83;;;22.00;;
9775;SDS011;4927;52.472;13.108;2022-11-24T09:42:38;28.40;;;21.40;;
9775;SDS011;4927;52.472;13.108;2022-11-24T09:47:58;31.02;;;21.77;;
9775;SDS011;4927;52.472;13.108;2022-11-24T09:53:09;31.20;;;22.47;;
9775;SDS011;4927;52.472;13.108;2022-11-24T09:58:19;32.57;;;23.87;;
9775;SDS011;4927;52.472;13.108;2022-11-24T10:03:25;31.00;;;23.03;;
9775;SDS011;4927;52.472;13.108;2022-11-24T10:08:35;29.63;;;22.60;;
9775;SDS011;4927;52.472;13.108;2022-11-24T10:19:34;32.33;;;22.97;;
9775;SDS011;4927;52.472;13.108;2022-11-24T10:25:00;30.27;;;22.80;;
9775;SDS011;4927;52.472;13.108;2022-11-24T10:30:12;33.47;;;24.20;;
9775;SDS011;4927;52.472;13.108;2022-11-24T10:35:20;30.80;;;23.23;;
9775;SDS011;4927;52.472;13.108;2022-11-24T10:40:32;36.30;;;24.80;;
9775;SDS011;4927;52.472;13.108;2022-11-24T10:45:46;33.80;;;24.63;;
9775;SDS011;4927;52.472;13.108;2022-11-24T10:50:53;31.60;;;24.03;;
9775;SDS011;4927;52.472;13.108;2022-11-24T10:55:59;32.90;;;23.90;;
9775;SDS011;4927;52.472;13.108;2022-11-24T11:01:20;31.57;;;24.17;;
9775;SDS011;4927;52.472;13.108;2022-11-24T11:06:29;31.33;;;24.37;;
9775;SDS011;4927;52.472;13.108;2022-11-24T11:11:36;34.43;;;25.40;;
9775;SDS011;4927;52.472;13.108;2022-11-24T11:16:44;33.20;;;24.83;;
9775;SDS011;4927;52.472;13.108;2022-11-24T11:27:24;36.80;;;24.70;;
9775;SDS011;4927;52.472;13.108;2022-11-24T11:32:30;34.40;;;24.53;;
9775;SDS011;4927;52.472;13.108;2022-11-24T11:37:37;33.40;;;26.00;;
9775;SDS011;4927;52.472;13.108;2022-11-24T11:42:46;37.27;;;26.50;;
9775;SDS011;4927;52.472;13.108;2022-11-24T11:47:52;34.00;;;25.27;;
9775;SDS011;4927;52.472;13.108;2022-11-24T11:53:31;36.73;;;25.17;;
9775;SDS011;4927;52.472;13.108;2022-11-24T11:58:51;33.00;;;25.53;;
9775;SDS011;4927;52.472;13.108;2022-11-24T12:04:15;35.57;;;24.80;;
9775;SDS011;4927;52.472;13.108;2022-11-24T12:09:41;35.77;;;26.70;;
9775;SDS011;4927;52.472;13.108;2022-11-24T12:20:16;32.87;;;25.17;;
9775;SDS011;4927;52.472;13.108;2022-11-24T12:25:27;30.30;;;23.90;;
9775;SDS011;4927;52.472;13.108;2022-11-24T12:30:37;28.70;;;23.37;;
9775;SDS011;4927;52.472;13.108;2022-11-24T12:35:43;32.33;;;24.57;;
9775;SDS011;4927;52.472;13.108;2022-11-24T12:40:53;31.80;;;23.47;;
9775;SDS011;4927;52.472;13.108;2022-11-24T12:45:57;34.43;;;24.23;;
9775;SDS011;4927;52.472;13.108;2022-11-24T12:51:24;30.20;;;22.40;;
9775;SDS011;4927;52.472;13.108;2022-11-24T12:56:30;30.37;;;22.33;;
9775;SDS011;4927;52.472;13.108;2022-11-24T13:01:37;31.10;;;24.83;;
9775;SDS011;4927;52.472;13.108;2022-11-24T13:06:44;34.70;;;24.77;;
9775;SDS011;4927;52.472;13.108;2022-11-24T13:11:49;39.93;;;26.33;;
9775;SDS011;4927;52.472;13.108;2022-11-24T13:16:56;31.27;;;24.17;;
9775;SDS011;4927;52.472;13.108;2022-11-24T13:22:12;36.40;;;23.60;;
9775;SDS011;4927;52.472;13.108;2022-11-24T13:27:22;33.07;;;23.90;;
9775;SDS011;4927;52.472;13.108;2022-11-24T13:37:49;33.30;;;25.20;;
9775;SDS011;4927;52.472;13.108;2022-11-24T13:54:01;27.77;;;22.00;;
9775;SDS011;4927;52.472;13.108;2022-11-24T13:59:14;37.73;;;25.37;;
9775;SDS011;4927;52.472;13.108;2022-11-24T14:04:20;31.80;;;24.30;;
9775;SDS011;4927;52.472;13.108;2022-11-24T14:09:32;29.87;;;23.70;;
9775;SDS011;4927;52.472;13.108;2022-11-24T14:14:40;29.40;;;23.20;;
9775;SDS011;4927;52.472;13.108;2022-11-24T14:19:47;29.60;;;23.67;;
9775;SDS011;4927;52.472;13.108;2022-11-24T14:24:57;33.60;;;25.20;;
9775;SDS011;4927;52.472;13.108;2022-11-24T14:30:15;35.40;;;25.67;;
9775;SDS011;4927;52.472;13.108;2022-11-24T14:35:26;30.00;;;23.60;;
9775;SDS011;4927;52.472;13.108;2022-11-24T14:40:36;31.50;;;24.87;;
9775;SDS011;4927;52.472;13.108;2022-11-24T14:45:48;37.60;;;27.00;;
9775;SDS011;4927;52.472;13.108;2022-11-24T14:50:53;34.30;;;24.83;;
9775;SDS011;4927;52.472;13.108;2022-11-24T14:56:06;28.77;;;23.37;;
9775;SDS011;4927;52.472;13.108;2022-11-24T15:01:18;32.23;;;24.30;;
9775;SDS011;4927;52.472;13.108;2022-11-24T15:06:23;37.47;;;25.03;;
9775;SDS011;4927;52.472;13.108;2022-11-24T15:11:30;38.63;;;28.50;;
9775;SDS011;4927;52.472;13.108;2022-11-24T15:16:34;37.07;;;25.90;;
9775;SDS011;4927;52.472;13.108;2022-11-24T15:21:40;33.73;;;26.43;;
9775;SDS011;4927;52.472;13.108;2022-11-24T15:26:47;31.10;;;23.30;;
9775;SDS011;4927;52.472;13.108;2022-11-24T15:31:58;38.20;;;27.40;;
9775;SDS011;4927;52.472;13.108;2022-11-24T15:37:05;35.73;;;25.60;;
9775;SDS011;4927;52.472;13.108;2022-11-24T15:42:11;36.60;;;26.00;;
9775;SDS011;4927;52.472;13.108;2022-11-24T15:47:17;34.53;;;26.27;;
9775;SDS011;4927;52.472;13.108;2022-11-24T15:52:22;31.70;;;24.63;;
9775;SDS011;4927;52.472;13.108;2022-11-24T15:57:28;40.87;;;29.40;;
9775;SDS011;4927;52.472;13.108;2022-11-24T16:02:35;35.37;;;27.70;;
9775;SDS011;4927;52.472;13.108;2022-11-24T16:07:41;32.90;;;25.70;;
9775;SDS011;4927;52.472;13.108;2022-11-24T16:12:47;37.30;;;28.63;;
9775;SDS011;4927;52.472;13.108;2022-11-24T16:17:53;33.93;;;26.27;;
9775;SDS011;4927;52.472;13.108;2022-11-24T16:23:01;42.20;;;29.60;;
9775;SDS011;4927;52.472;13.108;2022-11-24T16:28:07;39.80;;;28.47;;
9775;SDS011;4927;52.472;13.108;2022-11-24T16:33:13;45.50;;;27.93;;
9775;SDS011;4927;52.472;13.108;2022-11-24T16:38:19;34.97;;;25.83;;
9775;SDS011;4927;52.472;13.108;2022-11-24T16:43:27;33.83;;;25.40;;
9775;SDS011;4927;52.472;13.108;2022-11-24T16:48:34;32.80;;;24.30;;
9775;SDS011;4927;52.472;13.108;2022-11-24T16:53:40;38.80;;;25.97;;
9775;SDS011;4927;52.472;13.108;2022-11-24T16:58:46;32.00;;;24.93;;
9775;SDS011;4927;52.472;13.108;2022-11-24T17:03:53;31.80;;;24.30;;
9775;SDS011;4927;52.472;13.108;2022-11-24T17:08:57;35.43;;;26.00;;
9775;SDS011;4927;52.472;13.108;2022-11-24T17:14:03;31.60;;;23.67;;
9775;SDS011;4927;52.472;13.108;2022-11-24T17:19:10;30.93;;;22.67;;
9775;SDS011;4927;52.472;13.108;2022-11-24T17:24:17;35.87;;;25.40;;
9775;SDS011;4927;52.472;13.108;2022-11-24T17:29:24;30.20;;;24.57;;
9775;SDS011;4927;52.472;13.108;2022-11-24T17:34:30;35.10;;;25.10;;
9775;SDS011;4927;52.472;13.108;2022-11-24T17:39:36;31.03;;;24.70;;
9775;SDS011;4927;52.472;13.108;2022-11-24T17:44:42;37.83;;;25.90;;
9775;SDS011;4927;52.472;13.108;2022-11-24T17:49:49;38.23;;;27.20;;
9775;SDS011;4927;52.472;13.108;2022-11-24T17:54:53;33.70;;;25.40;;
9775;SDS011;4927;52.472;13.108;2022-11-24T17:59:59;34.57;;;23.93;;
9775;SDS011;4927;52.472;13.108;2022-11-24T18:05:06;27.40;;;20.83;;
9775;SDS011;4927;52.472;13.108;2022-11-24T18:10:11;38.00;;;28.00;;
9775;SDS011;4927;52.472;13.108;2022-11-24T18:15:15;34.57;;;26.07;;
9775;SDS011;4927;52.472;13.108;2022-11-24T18:20:21;30.43;;;22.13;;
9775;SDS011;4927;52.472;13.108;2022-11-24T18:25:28;30.93;;;24.07;;
9775;SDS011;4927;52.472;13.108;2022-11-24T18:30:35;36.50;;;24.83;;
9775;SDS011;4927;52.472;13.108;2022-11-24T18:35:39;38.33;;;27.20;;
9775;SDS011;4927;52.472;13.108;2022-11-24T18:40:50;31.60;;;23.83;;
9775;SDS011;4927;52.472;13.108;2022-11-24T18:45:52;35.80;;;25.23;;
9775;SDS011;4927;52.472;13.108;2022-11-24T18:50:56;38.30;;;26.10;;
9775;SDS011;4927;52.472;13.108;2022-11-24T18:56:04;31.50;;;23.20;;
9775;SDS011;4927;52.472;13.108;2022-11-24T19:01:12;33.40;;;24.20;;
9775;SDS011;4927;52.472;13.108;2022-11-24T19:06:20;33.50;;;25.60;;
9775;SDS011;4927;52.472;13.108;2022-11-24T19:11:27;42.20;;;28.80;;
9775;SDS011;4927;52.472;13.108;2022-11-24T19:16:33;52.80;;;32.73;;
9775;SDS011;4927;52.472;13.108;2022-11-24T19:21:39;42.20;;;29.50;;
9775;SDS011;4927;52.472;13.108;2022-11-24T19:26:43;39.20;;;26.47;;
9775;SDS011;4927;52.472;13.108;2022-11-24T19:31:54;35.33;;;25.00;;
9775;SDS011;4927;52.472;13.108;2022-11-24T19:36:59;35.13;;;26.07;;
9775;SDS011;4927;52.472;13.108;2022-11-24T19:42:05;44.13;;;30.70;;
9775;SDS011;4927;52.472;13.108;2022-11-24T19:47:11;38.93;;;27.17;;
9775;SDS011;4927;52.472;13.108;2022-11-24T19:52:17;41.20;;;29.80;;
9775;SDS011;4927;52.472;13.108;2022-11-24T19:57:24;47.43;;;31.47;;
9775;SDS011;4927;52.472;13.108;2022-11-24T20:02:31;40.00;;;28.30;;
9775;SDS011;4927;52.472;13.108;2022-11-24T20:07:38;43.20;;;29.80;;
9775;SDS011;4927;52.472;13.108;2022-11-24T20:12:44;39.85;;;27.27;;
9775;SDS011;4927;52.472;13.108;2022-11-24T20:17:51;51.78;;;31.55;;
9775;SDS011;4927;52.472;13.108;2022-11-24T20:22:57;39.20;;;26.73;;
9775;SDS011;4927;52.472;13.108;2022-11-24T20:28:03;38.57;;;26.23;;
9775;SDS011;4927;52.472;13.108;2022-11-24T20:33:10;36.47;;;23.75;;
9775;SDS011;4927;52.472;13.108;2022-11-24T20:38:16;36.80;;;25.70;;
9775;SDS011;4927;52.472;13.108;2022-11-24T20:43:22;41.15;;;26.90;;
9775;SDS011;4927;52.472;13.108;2022-11-24T20:48:28;35.45;;;24.05;;
9775;SDS011;4927;52.472;13.108;2022-11-24T20:53:35;40.63;;;25.13;;
9775;SDS011;4927;52.472;13.108;2022-11-24T20:58:41;37.23;;;25.77;;
9775;SDS011;4927;52.472;13.108;2022-11-24T21:03:50;61.47;;;26.47;;
9775;SDS011;4927;52.472;13.108;2022-11-24T21:08:53;42.83;;;26.13;;
9775;SDS011;4927;52.472;13.108;2022-11-24T21:13:59;40.50;;;24.03;;
9775;SDS011;4927;52.472;13.108;2022-11-24T21:19:08;37.80;;;24.60;;
9775;SDS011;4927;52.472;13.108;2022-11-24T21:24:13;36.80;;;25.30;;
9775;SDS011;4927;52.472;13.108;2022-11-24T21:29:18;32.67;;;22.37;;
9775;SDS011;4927;52.472;13.108;2022-11-24T21:34:25;31.03;;;22.23;;
9775;SDS011;4927;52.472;13.108;2022-11-24T21:39:31;36.70;;;24.23;;
9775;SDS011;4927;52.472;13.108;2022-11-24T21:44:37;25.50;;;20.10;;
9775;SDS011;4927;52.472;13.108;2022-11-24T21:49:43;27.93;;;21.80;;
9775;SDS011;4927;52.472;13.108;2022-11-24T21:54:50;30.83;;;22.70;;
9775;SDS011;4927;52.472;13.108;2022-11-24T21:59:57;33.00;;;22.80;;
9775;SDS011;4927;52.472;13.108;2022-11-24T22:05:04;29.60;;;22.20;;
9775;SDS011;4927;52.472;13.108;2022-11-24T22:10:12;26.97;;;21.17;;
9775;SDS011;4927;52.472;13.108;2022-11-24T22:15:17;29.30;;;22.43;;
9775;SDS011;4927;52.472;13.108;2022-11-24T22:20:23;26.67;;;19.63;;
9775;SDS011;4927;52.472;13.108;2022-11-24T22:25:29;24.27;;;19.80;;
9775;SDS011;4927;52.472;13.108;2022-11-24T22:30:36;19.90;;;17.70;;
9775;SDS011;4927;52.472;13.108;2022-11-24T22:35:42;22.10;;;18.80;;
9775;SDS011;4927;52.472;13.108;2022-11-24T22:40:49;22.40;;;18.90;;
9775;SDS011;4927;52.472;13.108;2022-11-24T22:45:55;19.83;;;17.50;;
9775;SDS011;4927;52.472;13.108;2022-11-24T22:51:02;20.10;;;18.00;;
9775;SDS011;4927;52.472;13.108;2022-11-24T22:56:09;20.73;;;18.30;;
9775;SDS011;4927;52.472;13.108;2022-11-24T23:01:16;24.10;;;20.10;;
9775;SDS011;4927;52.472;13.108;2022-11-24T23:06:22;20.07;;;17.73;;
9775;SDS011;4927;52.472;13.108;2022-11-24T23:11:30;20.87;;;17.97;;
9775;SDS011;4927;52.472;13.108;2022-11-24T23:16:37;21.43;;;17.90;;
9775;SDS011;4927;52.472;13.108;2022-11-24T23:21:43;19.60;;;17.03;;
9775;SDS011;4927;52.472;13.108;2022-11-24T23:26:49;22.50;;;18.10;;
9775;SDS011;4927;52.472;13.108;2022-11-24T23:31:56;19.13;;;17.13;;
9775;SDS011;4927;52.472;13.108;2022-11-24T23:37:02;18.80;;;16.50;;
9775;SDS011;4927;52.472;13.108;2022-11-24T23:42:09;19.37;;;17.27;;
9775;SDS011;4927;52.472;13.108;2022-11-24T23:47:16;17.93;;;16.10;;
9775;SDS011;4927;52.472;13.108;2022-11-24T23:52:22;17.40;;;15.60;;
9775;SDS011;4927;52.472;13.108;2022-11-24T23:57:29;19.10;;;17.10;;
